createdAt,value
2018-09-22T00:02:29.408Z,12.90
2018-09-22T00:05:01.941Z,12.90
2018-09-22T00:07:34.344Z,13.00
2018-09-22T00:10:06.797Z,12.90
2018-09-22T00:12:39.145Z,12.90
2018-09-22T00:15:11.904Z,13.00
2018-09-22T00:17:44.289Z,12.90
2018-09-22T00:20:16.743Z,12.90
2018-09-22T00:22:49.217Z,13.00
2018-09-22T00:25:21.668Z,13.00
2018-09-22T00:27:54.064Z,13.10
2018-09-22T00:30:26.507Z,13.10
2018-09-22T00:32:59.038Z,13.20
2018-09-22T00:35:31.566Z,13.30
2018-09-22T00:38:04.016Z,13.20
2018-09-22T00:40:37.113Z,13.30
2018-09-22T00:43:09.586Z,13.30
2018-09-22T00:45:42.082Z,13.40
2018-09-22T00:48:14.524Z,13.40
2018-09-22T00:50:47.010Z,13.40
2018-09-22T00:53:19.504Z,13.50
2018-09-22T00:55:52.070Z,13.40
2018-09-22T00:58:24.547Z,13.50
2018-09-22T01:00:56.957Z,13.40
2018-09-22T01:03:29.721Z,13.40
2018-09-22T01:06:02.165Z,13.40
2018-09-22T01:08:34.589Z,13.30
2018-09-22T01:11:07.084Z,13.20
2018-09-22T01:13:39.503Z,13.10
2018-09-22T01:16:12.594Z,13.00
2018-09-22T01:18:44.995Z,13.10
2018-09-22T01:21:17.405Z,13.00
2018-09-22T01:23:49.802Z,13.00
2018-09-22T01:26:22.216Z,13.10
2018-09-22T01:28:54.621Z,13.00
2018-09-22T01:31:27.067Z,13.00
2018-09-22T01:33:59.431Z,12.90
2018-09-22T01:36:31.900Z,13.00
2018-09-22T01:41:37.837Z,12.90
2018-09-22T01:44:10.254Z,12.80
2018-09-22T01:46:42.709Z,12.90
2018-09-22T01:49:15.152Z,12.80
2018-09-22T01:51:47.553Z,12.90
2018-09-22T01:54:19.925Z,12.90
2018-09-22T01:56:52.411Z,12.80
2018-09-22T01:59:24.865Z,12.80
2018-09-22T02:01:57.240Z,12.90
2018-09-22T02:04:29.685Z,12.80
2018-09-22T02:07:02.077Z,12.80
2018-09-22T02:09:34.484Z,12.90
2018-09-22T02:12:06.885Z,12.80
2018-09-22T02:14:39.289Z,12.80
2018-09-22T02:17:11.673Z,12.80
2018-09-22T02:19:44.085Z,12.80
2018-09-22T02:40:07.719Z,12.70
2018-09-22T02:50:18.751Z,12.60
2018-09-22T02:52:51.400Z,12.70
2018-09-22T02:55:23.993Z,12.60
2018-09-22T02:57:56.457Z,12.70
2018-09-22T03:00:29.339Z,12.70
2018-09-22T03:03:02.090Z,12.60
2018-09-22T03:05:34.796Z,12.60
2018-09-22T03:08:07.609Z,12.50
2018-09-22T03:10:40.109Z,12.60
2018-09-22T03:13:12.543Z,12.60
2018-09-22T03:15:44.926Z,12.60
2018-09-22T03:18:17.519Z,12.70
2018-09-22T03:20:49.951Z,12.70
2018-09-22T03:23:22.339Z,12.70
2018-09-22T03:25:54.953Z,12.70
2018-09-22T03:28:27.386Z,12.80
2018-09-22T03:30:59.782Z,12.70
2018-09-22T03:33:32.199Z,12.70
2018-09-22T03:38:37.261Z,12.50
2018-09-22T03:41:09.665Z,12.50
2018-09-22T03:43:42.099Z,12.50
2018-09-22T03:46:14.546Z,12.50
2018-09-22T03:48:46.960Z,12.40
2018-09-22T03:51:19.375Z,12.50
2018-09-22T03:53:51.804Z,12.40
2018-09-22T03:56:24.205Z,12.30
2018-09-22T03:58:56.677Z,12.40
2018-09-22T04:01:29.122Z,12.40
2018-09-22T04:04:01.479Z,12.40
2018-09-22T04:06:34.118Z,12.30
2018-09-22T04:09:06.912Z,12.20
2018-09-22T04:11:39.352Z,12.30
2018-09-22T04:14:11.758Z,12.30
2018-09-22T04:16:44.174Z,12.30
2018-09-22T04:19:16.732Z,12.10
2018-09-22T04:21:49.198Z,12.10
2018-09-22T04:24:21.643Z,12.30
2018-09-22T04:26:54.096Z,12.30
2018-09-22T04:29:26.542Z,12.30
2018-09-22T04:31:58.969Z,12.30
2018-09-22T04:34:31.416Z,12.10
2018-09-22T04:37:03.877Z,12.10
2018-09-22T04:39:37.945Z,12.10
2018-09-22T04:42:10.382Z,12.10
2018-09-22T04:44:42.798Z,12.10
2018-09-22T04:47:15.218Z,12.10
2018-09-22T04:49:47.678Z,12.00
2018-09-22T04:52:20.116Z,12.20
2018-09-22T04:54:52.535Z,12.10
2018-09-22T04:57:24.945Z,12.10
2018-09-22T04:59:57.701Z,12.10
2018-09-22T05:02:30.130Z,12.20
2018-09-22T05:05:02.616Z,12.20
2018-09-22T05:07:35.442Z,12.20
2018-09-22T05:10:07.914Z,12.30
2018-09-22T05:12:40.367Z,12.30
2018-09-22T05:15:12.765Z,12.30
2018-09-22T05:17:45.239Z,12.20
2018-09-22T05:20:19.169Z,12.00
2018-09-22T05:22:51.598Z,11.80
2018-09-22T05:25:24.013Z,11.70
2018-09-22T05:27:56.426Z,11.70
2018-09-22T05:30:28.856Z,11.60
2018-09-22T05:33:01.339Z,11.50
2018-09-22T05:35:33.771Z,11.50
2018-09-22T05:38:06.234Z,11.50
2018-09-22T05:40:38.704Z,11.60
2018-09-22T05:43:11.374Z,11.60
2018-09-22T05:45:43.834Z,11.60
2018-09-22T05:48:16.294Z,11.60
2018-09-22T05:50:48.917Z,11.60
2018-09-22T05:53:21.328Z,11.60
2018-09-22T05:55:53.755Z,11.70
2018-09-22T05:58:26.185Z,11.70
2018-09-22T06:00:58.711Z,11.80
2018-09-22T06:03:31.483Z,11.80
2018-09-22T06:06:03.842Z,11.80
2018-09-22T06:08:36.316Z,11.80
2018-09-22T06:11:08.743Z,11.80
2018-09-22T06:13:41.165Z,11.80
2018-09-22T06:16:13.597Z,11.80
2018-09-22T06:18:46.026Z,11.80
2018-09-22T06:21:18.531Z,11.90
2018-09-22T06:23:50.979Z,11.90
2018-09-22T06:26:23.358Z,11.80
2018-09-22T06:28:55.822Z,11.80
2018-09-22T06:31:28.230Z,11.70
2018-09-22T06:34:00.898Z,11.80
2018-09-22T06:36:33.322Z,12.00
2018-09-22T06:39:07.389Z,12.20
2018-09-22T06:41:40.007Z,12.20
2018-09-22T06:44:12.427Z,12.10
2018-09-22T06:46:44.880Z,12.10
2018-09-22T06:49:17.276Z,12.00
2018-09-22T06:51:49.719Z,12.10
2018-09-22T06:54:22.100Z,12.20
2018-09-22T06:56:54.728Z,12.20
2018-09-22T06:59:27.135Z,12.20
2018-09-22T07:01:59.686Z,12.30
2018-09-22T07:04:32.089Z,12.40
2018-09-22T07:07:04.515Z,12.40
2018-09-22T07:09:36.993Z,12.60
2018-09-22T07:14:41.872Z,12.70
2018-09-22T07:17:14.379Z,12.70
2018-09-22T07:19:46.865Z,12.80
2018-09-22T07:22:24.946Z,12.70
2018-09-22T07:24:57.665Z,12.70
2018-09-22T07:35:08.026Z,13.30
2018-09-22T07:37:40.387Z,13.00
2018-09-22T07:40:12.882Z,12.90
2018-09-22T07:42:45.340Z,12.90
2018-09-22T07:45:17.782Z,13.10
2018-09-22T07:47:50.171Z,13.10
2018-09-22T07:50:22.561Z,13.10
2018-09-22T07:52:54.992Z,13.30
2018-09-22T07:55:27.423Z,13.30
2018-09-22T07:58:00.027Z,13.30
2018-09-22T08:00:32.614Z,13.40
2018-09-22T08:03:05.213Z,13.40
2018-09-22T08:05:37.649Z,13.40
2018-09-22T08:08:10.190Z,13.40
2018-09-22T08:10:42.692Z,13.50
2018-09-22T08:13:15.179Z,13.40
2018-09-22T08:15:48.096Z,13.50
2018-09-22T08:18:20.551Z,13.70
2018-09-22T08:20:52.949Z,13.70
2018-09-22T08:23:25.676Z,13.70
2018-09-22T08:25:58.112Z,13.60
2018-09-22T08:28:30.585Z,13.60
2018-09-22T08:31:03.049Z,13.50
2018-09-22T08:33:35.451Z,13.50
2018-09-22T08:36:07.961Z,13.60
2018-09-22T08:38:40.431Z,13.80
2018-09-22T08:41:12.908Z,13.70
2018-09-22T08:43:45.354Z,13.90
2018-09-22T08:46:17.815Z,13.90
2018-09-22T08:48:50.253Z,13.90
2018-09-22T08:51:22.758Z,13.90
2018-09-22T08:53:55.174Z,13.90
2018-09-22T08:56:27.617Z,14.00
2018-09-22T08:59:00.405Z,14.30
2018-09-22T09:01:33.758Z,14.40
2018-09-22T09:04:06.912Z,14.40
2018-09-22T09:06:39.309Z,14.40
2018-09-22T09:09:11.832Z,14.50
2018-09-22T09:11:44.283Z,14.50
2018-09-22T09:14:16.712Z,14.70
2018-09-22T09:16:49.127Z,14.80
2018-09-22T09:19:21.533Z,14.90
2018-09-22T09:21:53.923Z,15.10
2018-09-22T09:24:26.762Z,15.20
2018-09-22T09:26:59.276Z,15.10
2018-09-22T09:29:31.744Z,15.00
2018-09-22T09:32:04.153Z,15.00
2018-09-22T09:34:36.632Z,15.20
2018-09-22T09:37:09.110Z,15.40
2018-09-22T09:39:41.611Z,15.40
2018-09-22T09:42:14.033Z,15.50
2018-09-22T09:44:46.647Z,15.30
2018-09-22T09:47:19.032Z,15.20
2018-09-22T09:49:51.547Z,15.20
2018-09-22T09:52:24.022Z,15.10
2018-09-22T09:54:56.507Z,15.20
2018-09-22T09:57:28.897Z,15.10
2018-09-22T10:00:01.329Z,15.20
2018-09-22T10:02:33.749Z,15.20
2018-09-22T10:05:06.209Z,15.10
2018-09-22T10:07:38.651Z,15.10
2018-09-22T10:10:11.324Z,15.30
2018-09-22T10:12:43.718Z,15.30
2018-09-22T10:15:16.430Z,15.10
2018-09-22T10:17:48.795Z,15.20
2018-09-22T10:20:21.484Z,15.20
2018-09-22T10:22:53.874Z,15.40
2018-09-22T10:25:26.322Z,15.30
2018-09-22T10:27:58.708Z,15.20
2018-09-22T10:30:31.196Z,15.20
2018-09-22T10:33:03.634Z,15.30
2018-09-22T10:35:36.025Z,15.50
2018-09-22T10:38:08.436Z,15.50
2018-09-22T10:40:40.831Z,15.80
2018-09-22T10:43:13.237Z,16.00
2018-09-22T10:45:45.753Z,16.00
2018-09-22T10:48:18.192Z,15.80
2018-09-22T10:50:50.957Z,15.80
2018-09-22T10:53:23.298Z,15.60
2018-09-22T10:55:55.729Z,15.40
2018-09-22T10:59:31.358Z,15.50
2018-09-22T11:02:03.783Z,15.50
2018-09-22T11:04:36.246Z,15.50
2018-09-22T11:07:08.776Z,15.80
2018-09-22T11:09:41.455Z,16.30
2018-09-22T11:12:13.859Z,16.10
2018-09-22T11:14:46.339Z,16.00
2018-09-22T11:17:18.768Z,16.10
2018-09-22T11:19:51.185Z,16.40
2018-09-22T11:22:23.561Z,16.50
2018-09-22T11:24:56.278Z,16.50
2018-09-22T11:27:28.708Z,16.70
2018-09-22T11:30:01.606Z,16.80
2018-09-22T11:32:33.986Z,16.80
2018-09-22T11:35:06.779Z,16.60
2018-09-22T11:37:39.461Z,16.30
2018-09-22T11:40:12.150Z,16.20
2018-09-22T11:42:44.903Z,16.00
2018-09-22T11:47:50.370Z,15.30
2018-09-22T11:50:22.935Z,15.60
2018-09-22T11:52:55.557Z,16.20
2018-09-22T11:55:27.963Z,16.40
2018-09-22T11:58:00.375Z,16.40
2018-09-22T12:00:33.055Z,16.50
2018-09-22T12:03:05.661Z,16.70
2018-09-22T12:05:38.967Z,16.70
2018-09-22T12:08:11.498Z,16.80
2018-09-22T12:10:44.339Z,16.80
2018-09-22T12:13:17.060Z,16.90
2018-09-22T12:15:49.818Z,16.80
2018-09-22T12:18:22.190Z,16.90
2018-09-22T12:20:54.700Z,16.60
2018-09-22T12:23:27.071Z,16.40
2018-09-22T12:26:00.010Z,16.50
2018-09-22T12:28:33.055Z,16.70
2018-09-22T12:31:05.454Z,16.90
2018-09-22T12:33:38.166Z,16.70
2018-09-22T12:36:10.836Z,16.80
2018-09-22T12:38:43.580Z,17.10
2018-09-22T12:41:17.533Z,17.00
2018-09-22T12:43:50.103Z,17.00
2018-09-22T12:46:22.849Z,17.00
2018-09-22T12:48:55.806Z,17.10
2018-09-22T12:51:28.612Z,17.30
2018-09-22T12:54:01.441Z,17.30
2018-09-22T12:56:34.624Z,17.20
2018-09-22T12:59:07.396Z,17.00
2018-09-22T13:01:40.175Z,17.10
2018-09-22T13:04:12.955Z,17.10
2018-09-22T13:06:45.873Z,17.20
2018-09-22T13:09:18.619Z,17.10
2018-09-22T13:11:51.232Z,17.10
2018-09-22T13:14:23.905Z,17.00
2018-09-22T13:16:56.718Z,17.00
2018-09-22T13:19:29.802Z,17.00
2018-09-22T13:22:02.818Z,17.20
2018-09-22T13:24:35.781Z,17.30
2018-09-22T13:27:08.601Z,17.30
2018-09-22T13:29:42.020Z,17.20
2018-09-22T13:32:14.939Z,17.20
2018-09-22T13:34:47.887Z,17.20
2018-09-22T13:37:21.787Z,17.30
2018-09-22T13:39:55.162Z,17.40
2018-09-22T13:42:27.579Z,17.40
2018-09-22T13:44:59.987Z,17.30
2018-09-22T13:47:32.432Z,17.20
2018-09-22T13:50:05.304Z,17.20
2018-09-22T13:52:37.970Z,17.40
2018-09-22T13:55:10.342Z,17.30
2018-09-22T13:57:42.755Z,17.20
2018-09-22T14:00:15.157Z,17.20
2018-09-22T14:02:47.609Z,17.40
2018-09-22T14:05:20.689Z,17.40
2018-09-22T14:07:53.438Z,17.30
2018-09-22T14:10:26.074Z,17.30
2018-09-22T14:12:58.655Z,17.30
2018-09-22T14:15:31.568Z,17.30
2018-09-22T14:18:04.118Z,17.30
2018-09-22T14:20:36.523Z,17.30
2018-09-22T14:23:08.927Z,17.30
2018-09-22T14:25:41.741Z,17.40
2018-09-22T14:28:14.505Z,17.30
2018-09-22T14:30:48.060Z,17.20
2018-09-22T14:33:20.882Z,17.10
2018-09-22T14:35:53.411Z,17.10
2018-09-22T14:38:25.835Z,17.10
2018-09-22T14:40:58.225Z,17.10
2018-09-22T14:43:30.674Z,17.20
2018-09-22T14:46:03.099Z,17.40
2018-09-22T14:48:35.516Z,17.40
2018-09-22T14:51:08.487Z,17.40
2018-09-22T14:53:41.889Z,17.20
2018-09-22T14:56:14.658Z,17.10
2018-09-22T14:58:47.492Z,17.20
2018-09-22T15:01:21.665Z,17.10
2018-09-22T15:03:54.077Z,17.10
2018-09-22T15:06:26.897Z,17.20
2018-09-22T15:08:59.667Z,17.10
2018-09-22T15:11:32.214Z,17.20
2018-09-22T15:14:04.678Z,17.20
2018-09-22T15:16:37.112Z,17.20
2018-09-22T15:19:09.952Z,17.10
2018-09-22T15:21:42.633Z,17.00
2018-09-22T15:24:15.389Z,17.00
2018-09-22T15:26:48.527Z,17.00
2018-09-22T15:29:21.176Z,17.00
2018-09-22T15:31:53.608Z,17.00
2018-09-22T15:34:26.094Z,16.90
2018-09-22T15:36:58.515Z,16.90
2018-09-22T15:39:30.996Z,16.90
2018-09-22T15:42:03.782Z,16.90
2018-09-22T15:44:37.099Z,16.80
2018-09-22T15:47:09.663Z,16.80
2018-09-22T15:49:42.393Z,16.80
2018-09-22T15:52:16.116Z,16.80
2018-09-22T15:54:49.541Z,16.80
2018-09-22T15:57:22.304Z,16.80
2018-09-22T15:59:55.288Z,16.80
2018-09-22T16:02:28.190Z,16.80
2018-09-22T16:05:01.016Z,16.80
2018-09-22T16:07:33.835Z,16.80
2018-09-22T16:10:06.290Z,16.70
2018-09-22T16:12:38.941Z,16.60
2018-09-22T16:15:11.723Z,16.60
2018-09-22T16:17:44.559Z,16.60
2018-09-22T16:20:17.692Z,16.50
2018-09-22T16:22:50.408Z,16.50
2018-09-22T16:25:22.854Z,16.50
2018-09-22T16:27:55.201Z,16.50
2018-09-22T16:30:27.600Z,16.40
2018-09-22T16:33:00.034Z,16.40
2018-09-22T16:35:32.516Z,16.40
2018-09-22T16:38:11.783Z,16.40
2018-09-22T16:40:44.556Z,16.30
2018-09-22T16:43:17.108Z,16.30
2018-09-22T16:45:49.515Z,16.30
2018-09-22T16:48:21.886Z,16.30
2018-09-22T16:50:54.319Z,16.30
2018-09-22T16:53:27.992Z,16.30
2018-09-22T16:56:00.438Z,16.30
2018-09-22T16:58:32.955Z,16.30
2018-09-22T17:01:05.541Z,16.20
2018-09-22T17:03:37.986Z,16.20
2018-09-22T17:08:43.560Z,16.10
2018-09-22T17:11:16.184Z,16.10
2018-09-22T17:13:50.809Z,16.10
2018-09-22T17:16:23.552Z,16.10
2018-09-22T17:18:56.214Z,16.10
2018-09-22T17:21:30.268Z,16.10
2018-09-22T17:24:02.849Z,16.00
2018-09-22T17:26:35.263Z,16.00
2018-09-22T17:29:07.903Z,16.00
2018-09-22T17:31:40.281Z,16.00
2018-09-22T17:34:12.855Z,16.10
2018-09-22T17:36:45.269Z,16.00
2018-09-22T17:39:17.713Z,16.00
2018-09-22T17:41:50.099Z,16.00
2018-09-22T17:44:22.568Z,16.00
2018-09-22T17:46:54.946Z,16.00
2018-09-22T17:49:28.149Z,15.90
2018-09-22T17:52:02.735Z,16.00
2018-09-22T17:54:35.322Z,16.00
2018-09-22T17:57:07.746Z,16.00
2018-09-22T17:59:40.192Z,15.90
2018-09-22T18:02:12.608Z,15.90
2018-09-22T18:04:45.064Z,16.00
2018-09-22T18:07:17.445Z,16.00
2018-09-22T18:09:49.829Z,16.00
2018-09-22T18:12:22.221Z,16.00
2018-09-22T18:14:54.621Z,15.90
2018-09-22T18:17:27.049Z,16.00
2018-09-22T18:20:00.387Z,16.00
2018-09-22T18:22:35.231Z,16.00
2018-09-22T18:25:07.902Z,16.00
2018-09-22T18:27:40.299Z,16.00
2018-09-22T18:30:12.746Z,16.00
2018-09-22T18:32:45.124Z,16.00
2018-09-22T18:35:17.621Z,15.80
2018-09-22T18:37:49.981Z,15.50
2018-09-22T18:40:22.402Z,15.40
2018-09-22T18:42:54.816Z,15.30
2018-09-22T18:45:27.223Z,15.10
2018-09-22T18:47:59.672Z,15.00
2018-09-22T18:50:32.068Z,14.90
2018-09-22T18:53:04.574Z,14.90
2018-09-22T18:55:36.983Z,14.90
2018-09-22T18:58:09.345Z,14.70
2018-09-22T19:00:41.723Z,14.70
2018-09-22T19:03:14.061Z,14.70
2018-09-22T19:05:46.607Z,14.60
2018-09-22T19:08:19.067Z,14.50
2018-09-22T19:10:51.486Z,14.50
2018-09-22T19:14:28.799Z,14.50
2018-09-22T19:17:04.729Z,14.50
2018-09-22T19:19:40.796Z,14.40
2018-09-22T19:22:16.758Z,14.30
2018-09-22T19:24:52.311Z,14.10
2018-09-22T19:28:00.095Z,14.10
2018-09-22T19:30:41.063Z,13.90
2018-09-22T19:33:23.446Z,13.90
2018-09-22T19:36:01.994Z,13.90
2018-09-22T19:38:39.050Z,13.80
2018-09-22T19:41:21.656Z,13.80
2018-09-22T19:44:59.978Z,13.80
2018-09-22T19:47:38.958Z,13.70
2018-09-22T19:50:14.216Z,13.70
2018-09-22T19:52:50.170Z,13.70
2018-09-22T19:55:22.965Z,13.60
2018-09-22T19:57:55.747Z,13.60
2018-09-22T20:00:29.419Z,13.60
2018-09-22T20:03:02.174Z,13.60
2018-09-22T20:05:35.220Z,13.60
2018-09-22T20:08:07.974Z,13.60
2018-09-22T20:10:40.782Z,13.70
2018-09-22T20:13:13.830Z,13.50
2018-09-22T20:18:19.701Z,13.40
2018-09-22T20:20:52.500Z,13.40
2018-09-22T20:23:24.871Z,13.20
2018-09-22T20:25:57.249Z,13.30
2018-09-22T20:28:29.602Z,13.30
2018-09-22T20:31:02.016Z,13.20
2018-09-22T20:33:34.399Z,13.30
2018-09-22T20:36:06.937Z,13.20
2018-09-22T20:38:39.191Z,13.20
2018-09-22T20:41:11.632Z,13.10
2018-09-22T20:43:44.000Z,13.10
2018-09-22T20:46:16.453Z,13.00
2018-09-22T20:48:48.832Z,13.00
2018-09-22T20:51:21.235Z,13.20
2018-09-22T20:53:53.590Z,13.00
2018-09-22T20:56:26.004Z,13.10
2018-09-22T20:58:58.369Z,13.10
2018-09-22T21:01:31.130Z,13.00
2018-09-22T21:04:03.543Z,12.90
2018-09-22T21:06:35.971Z,13.00
2018-09-22T21:09:09.352Z,13.10
2018-09-22T21:11:41.670Z,13.00
2018-09-22T21:14:14.032Z,13.10
2018-09-22T21:16:46.437Z,13.00
2018-09-22T21:19:18.810Z,12.90
2018-09-22T21:21:51.521Z,12.90
2018-09-22T21:24:23.951Z,13.00
2018-09-22T21:26:56.330Z,12.90
2018-09-22T21:29:28.972Z,12.90
2018-09-22T21:32:01.358Z,13.00
2018-09-22T21:34:35.910Z,12.90
2018-09-22T21:37:08.395Z,12.90
2018-09-22T21:39:40.772Z,12.90
2018-09-22T21:42:13.243Z,12.80
2018-09-22T21:44:45.776Z,12.70
2018-09-22T21:47:18.218Z,12.60
2018-09-22T21:49:50.801Z,12.50
2018-09-22T21:52:23.161Z,12.50
2018-09-22T21:57:28.005Z,12.40
2018-09-22T22:02:33.164Z,12.30
2018-09-22T22:05:05.613Z,12.30
2018-09-22T22:07:38.551Z,12.20
2018-09-22T22:10:10.972Z,12.10
2018-09-22T22:12:43.447Z,12.10
2018-09-22T22:15:16.041Z,12.10
2018-09-22T22:17:48.598Z,12.10
2018-09-22T22:20:21.186Z,12.10
2018-09-22T22:22:53.706Z,12.00
2018-09-22T22:25:26.266Z,12.00
2018-09-22T22:27:58.724Z,12.00
2018-09-22T22:30:31.317Z,12.10
2018-09-22T22:33:03.737Z,12.10
2018-09-22T22:35:36.185Z,12.00
2018-09-22T22:38:08.584Z,12.00
2018-09-22T22:40:40.999Z,12.00
2018-09-22T22:43:13.651Z,12.00
2018-09-22T22:45:46.146Z,11.90
2018-09-22T22:48:18.518Z,12.00
2018-09-22T22:50:51.235Z,12.00
2018-09-22T22:53:23.717Z,12.00
2018-09-22T22:55:56.138Z,11.90
2018-09-22T22:58:28.662Z,12.00
2018-09-22T23:01:01.299Z,12.10
2018-09-22T23:03:33.733Z,11.90
2018-09-22T23:06:06.300Z,11.90
2018-09-22T23:08:38.694Z,11.90
2018-09-22T23:11:11.159Z,11.80
2018-09-22T23:13:43.731Z,11.80
2018-09-22T23:16:16.328Z,11.90
2018-09-22T23:18:49.148Z,11.90
2018-09-22T23:21:21.617Z,11.90
2018-09-22T23:23:54.209Z,12.00
2018-09-22T23:26:26.637Z,11.90
2018-09-22T23:31:31.492Z,11.70
2018-09-22T23:34:03.915Z,11.70
2018-09-22T23:36:36.340Z,11.80
2018-09-22T23:39:10.173Z,11.80
2018-09-22T23:41:42.835Z,11.80
2018-09-22T23:44:15.443Z,11.90
2018-09-22T23:46:47.794Z,12.00
2018-09-22T23:49:20.209Z,12.00
2018-09-22T23:51:52.618Z,11.90
2018-09-22T23:54:25.026Z,11.90
2018-09-22T23:56:57.484Z,11.80
2018-09-22T23:59:29.881Z,11.70
